Time;durP1;ratioP1;P1;durP2;ratioP2;P2;SDS_P1;SDS_P2;PMS_P1;PMS_P2;Temp;Humidity;BMP_temperature;BMP_pressure;BME280_temperature;BME280_humidity;BME280_pressure;Samples;Min_cycle;Max_cycle;Signal;HPM_P1;HPM_P2
2023/06/21 00:00:45;;;;;;;;;45.00;39.00;;;;;24.98;50.77;100727.73;112361;1263;19967;-38
2023/06/21 00:03:33;;;;;;;;;42.33;38.67;;;;;24.99;51.08;100720.68;112068;1263;22389;-38
2023/06/21 00:06:00;;;;;;;;;44.00;40.00;;;;;25.00;51.09;100716.42;112229;1248;21689;-40
2023/06/21 00:08:28;;;;;;;;;41.00;37.00;;;;;25.00;51.43;100715.28;112100;1248;20300;-38
2023/06/21 00:10:56;;;;;;;;;44.50;40.00;;;;;24.94;51.54;100714.00;112232;1263;20816;-39
2023/06/21 00:13:24;;;;;;;;;41.67;39.00;;;;;24.96;51.55;100723.05;112295;1256;20132;-39
2023/06/21 00:15:54;;;;;;;;;50.00;43.00;;;;;24.98;51.64;100725.33;112151;1262;19957;-38
2023/06/21 00:18:21;;;;;;;;;43.50;40.00;;;;;24.98;51.66;100727.60;112132;1263;19657;-39
2023/06/21 00:20:49;;;;;;;;;42.67;37.00;;;;;24.99;51.75;100723.77;112206;1262;21844;-38
2023/06/21 00:23:18;;;;;;;;;40.00;38.00;;;;;24.98;51.79;100724.14;112169;1248;19212;-38
2023/06/21 00:25:45;;;;;;;;;50.00;42.00;;;;;25.00;51.78;100725.67;112230;1263;21203;-39
2023/06/21 00:28:12;;;;;;;;;43.50;39.00;;;;;24.94;51.89;100727.34;112111;1263;21655;-38
2023/06/21 00:30:40;;;;;;;;;42.00;39.00;;;;;24.96;51.83;100726.40;112279;1263;19941;-39
2023/06/21 00:33:07;;;;;;;;;45.00;40.50;;;;;24.87;52.05;100730.39;112180;1263;19463;-39
2023/06/21 00:35:35;;;;;;;;;43.00;40.00;;;;;24.89;52.25;100727.56;112314;1263;21824;-39
2023/06/21 00:38:02;;;;;;;;;44.00;39.00;;;;;24.78;52.46;100729.04;112184;1263;18731;-39
2023/06/21 00:40:30;;;;;;;;;42.00;39.50;;;;;24.79;52.76;100726.43;112265;1262;19473;-39
2023/06/21 00:42:57;;;;;;;;;43.00;36.00;;;;;24.88;52.34;100731.27;112114;1263;21551;-39
2023/06/21 00:45:24;;;;;;;;;46.50;39.00;;;;;24.91;52.28;100731.26;112268;1256;19944;-39
2023/06/21 00:47:52;;;;;;;;;45.33;40.33;;;;;24.88;52.59;100733.01;112094;1263;19666;-40
2023/06/21 00:50:19;;;;;;;;;39.00;38.00;;;;;24.79;52.71;100735.04;112252;1248;21583;-39
2023/06/21 00:52:47;;;;;;;;;48.50;42.50;;;;;24.77;52.74;100728.91;112104;1263;18813;-40
2023/06/21 00:55:15;;;;;;;;;48.00;42.00;;;;;24.76;52.65;100727.34;112305;1263;19516;-39
2023/06/21 00:57:44;;;;;;;;;40.00;36.00;;;;;24.77;52.71;100728.56;112004;1247;20559;-39
2023/06/21 01:00:17;;;;;;;;;44.00;40.00;;;;;24.70;52.88;100726.09;112132;1263;18816;-39
2023/06/21 01:02:44;;;;;;;;;56.00;43.50;;;;;24.73;52.72;100722.41;112296;1262;21092;-39
2023/06/21 01:05:12;;;;;;;;;46.33;42.67;;;;;24.73;52.66;100721.42;112117;1263;21475;-40
2023/06/21 01:07:39;;;;;;;;;49.67;41.33;;;;;24.66;52.65;100715.73;112267;1247;18806;-39
2023/06/21 01:10:08;;;;;;;;;48.50;39.50;;;;;24.60;52.74;100715.66;112111;1263;19450;-39
2023/06/21 01:12:36;;;;;;;;;43.50;40.00;;;;;24.63;52.76;100720.53;112153;1263;21709;-39
2023/06/21 01:15:03;;;;;;;;;45.50;41.00;;;;;24.62;52.59;100724.48;112059;1263;20300;-40
2023/06/21 01:17:31;;;;;;;;;45.00;41.00;;;;;24.58;52.51;100720.51;112169;1248;19400;-40
2023/06/21 01:19:58;;;;;;;;;46.00;42.50;;;;;24.56;52.63;100716.88;112084;1262;20093;-38
2023/06/21 01:22:25;;;;;;;;;49.00;43.00;;;;;24.54;52.72;100718.09;112192;1263;20262;-40
2023/06/21 01:24:53;;;;;;;;;43.00;41.00;;;;;24.58;52.45;100713.96;112079;1263;20845;-40
2023/06/21 01:27:20;;;;;;;;;47.00;42.00;;;;;24.53;52.57;100717.02;112192;1263;20366;-39
2023/06/21 01:29:49;;;;;;;;;46.50;39.00;;;;;24.54;52.58;100718.30;112036;1263;18701;-39
2023/06/21 01:32:16;;;;;;;;;52.00;42.00;;;;;24.56;52.41;100715.77;112144;1247;21118;-39
2023/06/21 01:34:44;;;;;;;;;49.00;43.00;;;;;24.53;52.35;100717.87;112157;1263;21570;-39
2023/06/21 01:37:11;;;;;;;;;44.00;41.00;;;;;24.58;52.28;100716.80;112147;1263;18715;-39
2023/06/21 01:39:38;;;;;;;;;50.00;43.00;;;;;24.56;52.02;100714.48;112102;1262;19799;-39
2023/06/21 01:42:06;;;;;;;;;50.00;43.00;;;;;24.48;52.32;100715.98;112183;1263;20341;-39
2023/06/21 01:44:33;;;;;;;;;49.00;42.00;;;;;24.49;52.40;100712.37;112049;1254;18804;-41
2023/06/21 01:47:01;;;;;;;;;42.00;40.00;;;;;24.51;52.21;100714.23;112182;1263;20808;-40
2023/06/21 01:49:28;;;;;;;;;52.00;43.00;;;;;24.48;52.34;100709.19;112028;1263;20275;-40
2023/06/21 01:51:56;;;;;;;;;52.50;45.00;;;;;24.40;52.63;100705.98;112165;1263;19927;-40
2023/06/21 01:54:25;;;;;;;;;49.00;41.00;;;;;24.47;52.50;100701.14;112075;1263;21131;-40
2023/06/21 01:56:53;;;;;;;;;49.50;40.00;;;;;24.45;52.54;100705.22;112073;1263;21650;-40
2023/06/21 01:59:20;;;;;;;;;51.50;43.00;;;;;24.50;52.36;100708.53;112222;1263;19951;-39
2023/06/21 02:01:50;;;;;;;;;50.67;43.67;;;;;24.51;52.34;100706.27;112111;1248;19828;-40
2023/06/21 02:04:17;;;;;;;;;42.00;40.50;;;;;24.51;52.42;100705.75;112114;1255;22814;-40
2023/06/21 02:06:45;;;;;;;;;47.00;42.50;;;;;24.46;52.59;100707.60;112252;1263;20139;-41
2023/06/21 02:09:12;;;;;;;;;44.33;41.00;;;;;24.49;52.57;100703.59;112110;1248;19808;-40
2023/06/21 02:11:40;;;;;;;;;47.00;41.00;;;;;24.42;52.66;100703.93;112233;1263;20310;-41
2023/06/21 02:14:07;;;;;;;;;55.00;45.00;;;;;24.43;52.79;100700.40;112135;1248;18799;-40
2023/06/21 02:16:35;;;;;;;;;50.00;42.00;;;;;24.41;52.86;100699.59;112244;1263;20879;-38
2023/06/21 02:19:02;;;;;;;;;50.00;44.00;;;;;24.47;52.60;100702.20;112095;1248;21618;-39
2023/06/21 02:21:30;;;;;;;;;45.00;41.00;;;;;24.44;52.67;100699.19;112258;1263;20005;-39
2023/06/21 02:23:57;;;;;;;;;45.33;42.33;;;;;24.35;52.79;100699.80;112131;1247;20805;-41
2023/06/21 02:26:25;;;;;;;;;44.00;41.00;;;;;24.43;52.73;100702.08;112283;1247;20251;-38
2023/06/21 02:28:52;;;;;;;;;53.00;45.00;;;;;24.38;52.92;100699.42;112089;1263;18863;-41
2023/06/21 02:31:20;;;;;;;;;46.33;44.00;;;;;24.30;52.95;100698.61;112264;1263;19472;-39
2023/06/21 02:33:48;;;;;;;;;45.00;41.00;;;;;24.19;53.33;100694.37;112100;1248;22832;-38
2023/06/21 02:36:16;;;;;;;;;52.50;44.00;;;;;24.28;53.28;100696.36;112213;1248;20312;-38
2023/06/21 02:38:44;;;;;;;;;47.50;42.00;;;;;24.20;53.18;100696.90;112033;1263;21003;-38
2023/06/21 02:41:12;;;;;;;;;50.00;43.50;;;;;24.18;53.38;100701.91;112109;1247;20302;-38
2023/06/21 02:43:39;;;;;;;;;47.67;44.00;;;;;24.28;53.35;100719.16;112300;1263;20155;-46
2023/06/21 02:46:07;;;;;;;;;51.00;43.00;;;;;24.36;53.34;100722.73;112126;1263;20649;-40
2023/06/21 02:48:34;;;;;;;;;48.00;43.00;;;;;24.42;53.14;100726.95;112310;1248;21475;-39
2023/06/21 02:51:02;;;;;;;;;49.00;42.00;;;;;24.44;53.18;100730.88;112095;1263;20225;-39
2023/06/21 02:53:30;;;;;;;;;46.00;42.00;;;;;24.43;53.26;100727.42;112277;1263;19778;-38
2023/06/21 02:55:57;;;;;;;;;55.33;43.67;;;;;24.42;53.41;100729.19;112090;1263;20118;-40
2023/06/21 02:58:25;;;;;;;;;50.00;43.00;;;;;24.36;53.39;100728.88;112272;1263;18647;-39
2023/06/21 03:00:52;;;;;;;;;49.00;42.00;;;;;24.35;53.54;100727.20;112110;1263;20801;-39
2023/06/21 03:03:20;;;;;;;;;47.00;43.00;;;;;24.40;53.44;100732.12;112233;1263;21465;-39
2023/06/21 03:05:47;;;;;;;;;50.00;43.00;;;;;24.41;53.59;100724.33;112076;1263;18643;-41
2023/06/21 03:08:15;;;;;;;;;46.50;42.50;;;;;24.37;53.34;100720.81;112263;1263;19879;-40
2023/06/21 03:10:42;;;;;;;;;52.00;43.00;;;;;24.40;53.42;100724.70;112154;1247;20195;-40
2023/06/21 03:13:10;;;;;;;;;49.33;41.33;;;;;24.43;53.20;100723.63;112275;1263;21380;-40
2023/06/21 03:15:37;;;;;;;;;50.00;43.50;;;;;24.43;53.22;100727.25;112058;1263;20814;-40
2023/06/21 03:18:05;;;;;;;;;50.00;45.00;;;;;24.37;53.39;100728.81;112269;1263;20294;-40
2023/06/21 03:20:32;;;;;;;;;47.00;42.00;;;;;24.44;53.40;100738.02;112087;1263;19039;-40
2023/06/21 03:23:00;;;;;;;;;52.00;43.00;;;;;24.44;53.17;100735.98;112264;1248;19496;-41
2023/06/21 03:25:28;;;;;;;;;50.50;45.00;;;;;24.43;53.33;100741.63;112107;1263;21867;-40
2023/06/21 03:27:59;;;;;;;;;51.50;43.50;;;;;24.38;53.63;100743.20;112177;1263;19923;-39
2023/06/21 03:30:26;;;;;;;;;52.00;45.00;;;;;24.40;53.65;100741.36;112161;1263;19426;-40
2023/06/21 03:32:54;;;;;;;;;47.00;42.00;;;;;24.43;53.64;100740.23;112257;1263;20161;-39
2023/06/21 03:35:21;;;;;;;;;47.00;42.00;;;;;24.43;53.56;100743.34;112129;1263;20065;-38
2023/06/21 03:37:50;;;;;;;;;51.00;44.33;;;;;24.48;53.55;100738.61;112274;1263;20675;-40
2023/06/21 03:40:17;;;;;;;;;53.00;46.00;;;;;24.50;53.52;100740.28;112104;1247;21606;-40
2023/06/21 03:42:45;;;;;;;;;52.00;44.50;;;;;24.49;53.53;100743.44;112222;1263;18734;-39
2023/06/21 03:45:12;;;;;;;;;51.00;43.50;;;;;24.50;53.50;100745.52;112141;1247;21124;-42
2023/06/21 03:47:40;;;;;;;;;55.50;45.50;;;;;24.48;53.54;100746.71;112271;1248;21861;-39
2023/06/21 03:50:07;;;;;;;;;50.67;44.00;;;;;24.48;53.67;100751.35;112118;1251;21544;-39
2023/06/21 03:52:35;;;;;;;;;51.00;43.50;;;;;24.49;53.72;100751.31;112238;1263;21079;-39
2023/06/21 03:55:02;;;;;;;;;49.00;43.00;;;;;24.51;53.71;100756.81;112097;1255;21838;-38
2023/06/21 03:57:30;;;;;;;;;51.67;43.33;;;;;24.52;53.76;100755.84;112252;1263;20173;-39
2023/06/21 03:59:57;;;;;;;;;57.67;44.67;;;;;24.49;53.74;100762.06;112075;1263;20860;-39
2023/06/21 04:02:24;;;;;;;;;49.00;42.50;;;;;24.44;54.01;100769.03;112216;1262;21493;-39
2023/06/21 04:04:52;;;;;;;;;47.00;42.00;;;;;24.40;54.28;100769.63;112077;1262;20309;-39
2023/06/21 04:07:21;;;;;;;;;50.00;43.00;;;;;24.44;54.23;100767.09;112276;1247;21139;-40
2023/06/21 04:09:49;;;;;;;;;56.00;47.00;;;;;24.51;54.03;100772.54;112274;1263;21478;-39
2023/06/21 04:12:16;;;;;;;;;60.00;47.00;;;;;24.48;54.14;100774.02;112136;1263;21118;-40
2023/06/21 04:14:44;;;;;;;;;54.00;46.00;;;;;24.41;54.40;100771.11;112277;1263;20807;-40
2023/06/21 04:17:11;;;;;;;;;49.50;44.00;;;;;24.40;54.54;100772.59;112228;1263;21469;-37
2023/06/21 04:19:39;;;;;;;;;52.00;45.50;;;;;24.39;54.65;100774.55;112174;1263;20098;-39
2023/06/21 04:22:07;;;;;;;;;52.50;45.00;;;;;24.35;55.05;100779.61;112132;1263;20846;-39
2023/06/21 04:24:36;;;;;;;;;53.00;46.00;;;;;24.25;55.43;100772.44;112279;1248;21568;-38
2023/06/21 04:27:05;;;;;;;;;56.00;47.00;;;;;24.26;55.44;100772.74;112288;1263;20136;-41
2023/06/21 04:29:40;;;;;;;;;68.00;54.00;;;;;24.34;55.54;100784.52;112133;1263;22027;-39
2023/06/21 04:32:07;;;;;;;;;56.00;48.00;;;;;24.28;55.81;100780.23;112074;1248;22732;-38
2023/06/21 04:34:35;;;;;;;;;54.00;46.00;;;;;24.20;55.89;100767.30;112204;1248;20161;-40
2023/06/21 04:37:05;;;;;;;;;48.50;44.00;;;;;24.16;55.87;100769.97;112085;1263;19533;-39
2023/06/21 04:39:32;;;;;;;;;55.33;46.67;;;;;24.21;56.01;100762.73;112126;1251;21551;-39
2023/06/21 04:42:00;;;;;;;;;53.00;45.00;;;;;24.24;56.06;100761.98;112216;1263;19957;-39
2023/06/21 04:44:28;;;;;;;;;54.67;45.00;;;;;24.23;55.95;100760.34;112108;1263;20952;-40
2023/06/21 04:46:55;;;;;;;;;60.67;46.67;;;;;24.21;56.01;100749.98;112237;1263;21575;-40
2023/06/21 04:49:25;;;;;;;;;45.67;41.33;;;;;24.23;56.03;100751.27;112096;1263;19920;-40
2023/06/21 04:51:56;;;;;;;;;51.00;45.00;;;;;24.28;56.21;100751.77;112075;1263;20756;-40
2023/06/21 04:54:24;;;;;;;;;49.00;42.00;;;;;24.23;56.48;100753.94;112166;1263;21367;-39
2023/06/21 04:56:51;;;;;;;;;52.50;45.50;;;;;24.18;57.03;100765.55;112110;1263;18651;-39
2023/06/21 04:59:19;;;;;;;;;52.50;45.50;;;;;24.21;57.10;100768.16;112278;1263;19646;-38
2023/06/21 05:01:46;;;;;;;;;53.00;45.00;;;;;24.31;57.60;100774.33;112135;1263;20312;-39
2023/06/21 05:04:14;;;;;;;;;53.67;45.00;;;;;24.33;58.09;100779.05;112256;1262;18764;-38
2023/06/21 05:06:42;;;;;;;;;62.00;48.00;;;;;24.26;58.40;100785.60;112140;1263;19404;-38
2023/06/21 05:09:09;;;;;;;;;61.50;49.50;;;;;24.15;59.37;100783.20;112276;1263;20330;-38
2023/06/21 05:11:37;;;;;;;;;54.00;47.50;;;;;24.11;60.46;100786.84;112093;1263;19023;-38
2023/06/21 05:14:04;;;;;;;;;52.00;45.00;;;;;23.84;61.06;100780.34;112260;1263;21014;-39
2023/06/21 05:16:32;;;;;;;;;54.00;47.00;;;;;23.76;61.75;100779.10;112066;1263;20146;-39
2023/06/21 05:18:59;;;;;;;;;55.50;47.00;;;;;23.87;62.03;100782.63;112312;1247;19006;-39
2023/06/21 05:21:27;;;;;;;;;61.00;49.00;;;;;23.87;62.50;100790.66;112078;1263;21069;-38
2023/06/21 05:23:54;;;;;;;;;58.00;48.00;;;;;23.89;62.64;100790.80;112255;1263;21523;-39
2023/06/21 05:26:22;;;;;;;;;53.67;45.33;;;;;23.79;62.68;100786.88;112116;1263;20157;-39
2023/06/21 05:28:49;;;;;;;;;52.00;46.00;;;;;23.75;63.09;100789.70;112272;1263;20818;-38
2023/06/21 05:31:17;;;;;;;;;63.00;46.50;;;;;23.78;63.33;100787.67;112106;1263;21459;-38
2023/06/21 05:33:44;;;;;;;;;56.33;46.00;;;;;23.67;63.31;100787.26;112291;1263;19097;-39
2023/06/21 05:36:12;;;;;;;;;60.50;46.00;;;;;23.57;63.66;100779.13;112112;1263;20920;-39
2023/06/21 05:38:39;;;;;;;;;56.50;49.00;;;;;23.61;63.62;100773.73;112304;1262;22883;-39
2023/06/21 05:41:07;;;;;;;;;60.50;50.50;;;;;23.61;63.77;100766.14;112138;1263;21088;-38
2023/06/21 05:43:34;;;;;;;;;56.50;47.50;;;;;23.61;63.83;100757.74;112272;1262;22135;-38
2023/06/21 05:46:01;;;;;;;;;54.00;46.00;;;;;23.62;64.02;100753.52;112127;1263;21651;-37
2023/06/21 05:48:29;;;;;;;;;53.50;47.00;;;;;23.60;64.20;100746.29;112338;1262;20218;-38
2023/06/21 05:50:57;;;;;;;;;59.00;49.00;;;;;23.67;64.17;100744.65;112121;1263;19753;-38
2023/06/21 05:53:24;;;;;;;;;59.50;49.00;;;;;23.68;64.15;100739.08;112280;1247;20306;-39
2023/06/21 05:55:54;;;;;;;;;56.00;47.00;;;;;23.78;64.17;100747.33;112098;1248;18773;-39
2023/06/21 05:58:21;;;;;;;;;60.00;48.50;;;;;23.75;64.64;100753.15;112135;1263;20201;-38
2023/06/21 06:00:49;;;;;;;;;55.67;49.33;;;;;23.67;64.89;100752.23;112276;1263;21511;-38
2023/06/21 06:03:17;;;;;;;;;56.00;47.00;;;;;23.60;65.49;100751.65;112082;1263;20123;-38
2023/06/21 06:05:44;;;;;;;;;55.50;46.50;;;;;23.56;65.89;100754.33;112278;1257;19510;-39
2023/06/21 06:08:12;;;;;;;;;58.50;48.50;;;;;23.57;66.35;100754.92;112042;1263;23579;-37
2023/06/21 06:10:39;;;;;;;;;62.50;49.00;;;;;23.56;66.81;100761.37;112267;1254;20309;-37
2023/06/21 06:13:07;;;;;;;;;59.00;49.50;;;;;23.48;67.86;100762.96;112179;1263;21023;-37
2023/06/21 06:15:34;;;;;;;;;61.67;50.33;;;;;23.42;68.35;100762.27;112355;1257;20469;-36
2023/06/21 06:18:02;;;;;;;;;56.00;46.50;;;;;23.40;68.69;100771.25;112210;1248;20024;-38
2023/06/21 06:20:29;;;;;;;;;59.00;49.00;;;;;23.42;69.93;100773.75;112373;1247;19461;-38
2023/06/21 06:22:57;;;;;;;;;53.00;46.00;;;;;23.43;70.04;100774.02;112098;1262;21471;-37
2023/06/21 06:25:24;;;;;;;;;58.00;49.50;;;;;23.53;69.70;100773.11;112315;1263;18742;-38
2023/06/21 06:27:52;;;;;;;;;60.00;49.00;;;;;23.47;69.82;100786.98;112100;1263;20707;-37
2023/06/21 06:30:19;;;;;;;;;57.00;46.33;;;;;23.43;70.19;100792.41;112311;1248;22358;-38
2023/06/21 06:32:46;;;;;;;;;81.00;64.00;;;;;23.70;69.48;100790.56;112107;1263;19946;-38
2023/06/21 06:35:14;;;;;;;;;83.50;61.00;;;;;23.81;69.47;100794.46;112303;1263;22409;-37
2023/06/21 06:37:41;;;;;;;;;69.00;56.00;;;;;24.06;69.09;100802.70;112140;1263;21615;-38
2023/06/21 06:40:09;;;;;;;;;69.00;54.00;;;;;24.29;68.23;100802.77;112254;1263;18629;-38
2023/06/21 06:42:36;;;;;;;;;58.00;50.00;;;;;24.43;67.49;100793.00;112147;1263;19467;-41
2023/06/21 06:45:04;;;;;;;;;61.33;49.33;;;;;24.32;67.88;100785.98;112111;1263;21495;-41
2023/06/21 06:47:31;;;;;;;;;57.00;49.00;;;;;24.07;69.15;100774.45;112166;1263;20274;-40
2023/06/21 06:49:58;;;;;;;;;58.00;45.00;;;;;23.92;69.59;100770.02;112131;1257;20874;-40
2023/06/21 06:52:26;;;;;;;;;59.00;48.00;;;;;23.78;69.83;100758.79;112167;1262;20508;-39
2023/06/21 06:54:53;;;;;;;;;52.00;44.33;;;;;23.51;70.10;100748.95;112028;1263;19966;-39
2023/06/21 06:57:21;;;;;;;;;54.00;46.00;;;;;23.37;71.03;100745.04;112178;1263;19777;-40
2023/06/21 06:59:48;;;;;;;;;60.00;44.00;;;;;23.46;71.06;100731.92;112106;1254;21637;-42
2023/06/21 07:02:16;;;;;;;;;48.00;43.00;;;;;23.36;71.27;100719.48;112205;1263;18716;-39
2023/06/21 07:04:43;;;;;;;;;58.00;48.33;;;;;23.25;71.76;100714.70;112044;1262;20832;-39
2023/06/21 07:07:11;;;;;;;;;53.00;46.00;;;;;23.14;72.04;100726.14;112177;1263;22581;-40
2023/06/21 07:09:38;;;;;;;;;61.33;44.67;;;;;22.93;73.50;100733.96;112057;1263;18827;-39
2023/06/21 07:12:06;;;;;;;;;53.67;46.67;;;;;23.04;73.38;100727.38;112162;1263;21026;-42
2023/06/21 07:14:33;;;;;;;;;55.33;48.67;;;;;22.99;73.91;100735.09;112042;1263;21348;-40
2023/06/21 07:17:01;;;;;;;;;58.00;47.00;;;;;23.20;73.35;100736.47;112156;1263;18797;-41
2023/06/21 07:19:28;;;;;;;;;64.00;51.00;;;;;23.20;73.15;100731.05;112053;1247;19442;-40
2023/06/21 07:21:56;;;;;;;;;54.00;47.00;;;;;23.24;73.43;100729.92;112192;1256;20242;-41
2023/06/21 07:24:23;;;;;;;;;59.00;49.00;;;;;23.34;73.37;100725.70;112072;1263;21444;-39
2023/06/21 07:26:51;;;;;;;;;59.00;50.67;;;;;23.25;73.54;100726.94;112218;1263;19426;-40
2023/06/21 07:29:18;;;;;;;;;72.00;55.00;;;;;23.35;73.58;100735.64;112045;1263;20521;-39
2023/06/21 07:31:46;;;;;;;;;65.00;52.50;;;;;23.43;73.66;100743.77;112184;1256;18755;-39
2023/06/21 07:34:13;;;;;;;;;70.00;56.00;;;;;23.40;73.66;100736.45;112074;1247;19776;-39
2023/06/21 07:36:41;;;;;;;;;66.00;55.00;;;;;23.29;74.22;100738.25;112182;1263;21829;-38
2023/06/21 07:39:09;;;;;;;;;67.00;53.00;;;;;23.20;74.66;100733.74;112066;1248;20276;-40
2023/06/21 07:41:36;;;;;;;;;70.33;53.00;;;;;23.21;74.93;100731.02;112149;1263;20718;-40
2023/06/21 07:44:04;;;;;;;;;69.00;53.00;;;;;23.22;74.62;100727.50;112188;1263;20434;-39
2023/06/21 07:46:31;;;;;;;;;66.00;53.00;;;;;23.23;74.70;100725.36;112147;1263;18869;-38
2023/06/21 07:48:59;;;;;;;;;66.00;52.00;;;;;23.35;74.43;100719.67;112104;1263;21026;-41
2023/06/21 07:51:26;;;;;;;;;62.00;50.00;;;;;23.40;74.22;100722.10;112157;1263;22844;-39
2023/06/21 07:53:53;;;;;;;;;63.00;52.50;;;;;23.46;74.23;100722.92;112049;1263;18621;-39
2023/06/21 07:56:21;;;;;;;;;60.50;50.50;;;;;23.34;74.57;100717.86;112173;1248;19660;-38
2023/06/21 07:58:48;;;;;;;;;65.00;53.00;;;;;23.43;74.41;100716.18;112050;1247;21807;-39
2023/06/21 08:01:16;;;;;;;;;60.00;50.00;;;;;23.43;74.51;100713.28;112197;1248;20258;-39
2023/06/21 08:03:43;;;;;;;;;64.00;50.00;;;;;23.48;73.91;100714.27;112076;1248;20832;-40
2023/06/21 08:06:11;;;;;;;;;60.50;48.50;;;;;23.48;73.57;100708.59;112222;1263;20306;-40
2023/06/21 08:08:39;;;;;;;;;61.00;49.00;;;;;23.51;73.21;100710.29;112331;1256;18795;-38
2023/06/21 08:11:06;;;;;;;;;57.00;46.00;;;;;23.60;73.04;100723.01;112146;1263;21623;-38
2023/06/21 08:13:34;;;;;;;;;46.00;42.00;;;;;23.74;72.62;100757.73;112231;1263;21628;-38
2023/06/21 08:16:01;;;;;;;;;62.00;45.00;;;;;23.84;72.10;100782.73;112116;1263;20227;-38
2023/06/21 08:18:29;;;;;;;;;52.33;45.67;;;;;23.84;72.52;100777.20;112192;1263;19458;-39
2023/06/21 08:20:56;;;;;;;;;57.00;46.00;;;;;23.86;72.37;100738.94;112144;1263;20110;-40
2023/06/21 08:23:24;;;;;;;;;50.00;44.00;;;;;23.80;72.38;100742.84;112100;1256;18732;-39
2023/06/21 08:25:52;;;;;;;;;49.00;43.50;;;;;23.80;72.75;100763.39;112110;1263;19784;-39
2023/06/21 08:28:19;;;;;;;;;47.33;44.00;;;;;23.86;72.75;100766.77;112283;1263;21599;-39
2023/06/21 08:30:47;;;;;;;;;57.00;44.00;;;;;23.84;73.12;100773.54;112117;1263;19927;-40
2023/06/21 08:33:14;;;;;;;;;50.50;44.00;;;;;23.89;72.96;100773.45;112257;1263;21053;-40
2023/06/21 08:35:41;;;;;;;;;57.67;44.33;;;;;23.95;72.78;100768.31;112150;1248;21853;-40
2023/06/21 08:38:09;;;;;;;;;49.33;44.00;;;;;23.92;73.25;100765.15;112351;1263;18592;-40
2023/06/21 08:40:37;;;;;;;;;52.00;45.00;;;;;23.89;73.82;100770.50;112146;1262;19838;-40
2023/06/21 08:43:05;;;;;;;;;45.50;41.50;;;;;23.96;73.66;100770.44;112303;1263;21432;-40
2023/06/21 08:45:32;;;;;;;;;54.50;44.50;;;;;23.97;73.84;100765.51;112112;1263;20016;-40
2023/06/21 08:48:00;;;;;;;;;50.00;44.00;;;;;24.03;73.87;100763.51;112321;1248;20717;-40
2023/06/21 08:50:28;;;;;;;;;50.50;42.00;;;;;24.08;73.57;100761.65;112058;1248;21550;-39
2023/06/21 08:52:55;;;;;;;;;54.50;44.00;;;;;24.12;73.33;100769.85;112234;1263;18526;-39
2023/06/21 08:55:23;;;;;;;;;40.00;37.00;;;;;24.12;72.95;100772.71;112096;1263;19555;-39
2023/06/21 08:57:51;;;;;;;;;41.00;38.00;;;;;24.13;72.90;100774.21;112186;1262;21809;-38
2023/06/21 09:00:19;;;;;;;;;47.33;42.67;;;;;24.14;72.92;100779.36;112098;1263;19898;-39
2023/06/21 09:02:46;;;;;;;;;41.50;39.50;;;;;24.18;72.37;100779.94;112149;1248;20362;-38
2023/06/21 09:05:14;;;;;;;;;39.00;37.00;;;;;24.17;72.34;100788.22;112118;1263;20100;-39
2023/06/21 09:07:41;;;;;;;;;45.00;40.00;;;;;24.17;71.82;100796.05;112128;1263;21044;-39
2023/06/21 09:10:09;;;;;;;;;44.50;41.00;;;;;24.17;71.39;100797.41;112156;1263;20993;-40
2023/06/21 09:12:36;;;;;;;;;49.00;41.00;;;;;24.12;71.02;100796.61;112138;1248;20118;-40
2023/06/21 09:15:04;;;;;;;;;50.50;42.00;;;;;24.07;70.65;100801.79;112114;1263;20253;-39
2023/06/21 09:17:31;;;;;;;;;48.50;41.00;;;;;24.04;70.27;100797.09;112149;1263;19663;-39
2023/06/21 09:19:59;;;;;;;;;37.00;37.00;;;;;24.07;69.99;100793.77;112177;1263;20463;-39
2023/06/21 09:22:26;;;;;;;;;30.33;29.33;;;;;24.03;70.01;100801.88;112138;1263;18703;-39
2023/06/21 09:24:54;;;;;;;;;42.00;37.00;;;;;24.05;69.82;100803.63;112216;1263;19470;-39
2023/06/21 09:27:21;;;;;;;;;41.00;38.00;;;;;24.13;69.83;100799.99;112165;1248;21538;-39
2023/06/21 09:29:49;;;;;;;;;37.00;33.00;;;;;24.17;69.89;100801.00;112056;1263;19988;-39
2023/06/21 09:32:16;;;;;;;;;38.00;33.00;;;;;24.17;69.80;100795.34;112202;1263;20894;-40
2023/06/21 09:34:43;;;;;;;;;38.00;36.00;;;;;24.15;69.54;100803.71;112050;1263;21482;-40
2023/06/21 09:37:11;;;;;;;;;40.00;38.00;;;;;24.06;69.85;100809.23;112149;1263;20304;-39
2023/06/21 09:39:38;;;;;;;;;33.00;30.33;;;;;24.08;69.74;100812.27;112052;1248;20815;-38
2023/06/21 09:42:06;;;;;;;;;33.33;31.67;;;;;24.12;69.64;100816.33;112174;1263;21652;-39
2023/06/21 09:44:33;;;;;;;;;38.00;34.00;;;;;24.23;69.38;100825.79;112067;1247;20262;-38
2023/06/21 09:47:01;;;;;;;;;39.50;34.50;;;;;24.31;69.42;100834.52;112221;1262;21914;-38
2023/06/21 09:49:28;;;;;;;;;41.00;38.00;;;;;24.33;69.37;100837.74;112047;1263;21944;-38
2023/06/21 09:51:56;;;;;;;;;38.00;34.33;;;;;24.33;69.39;100838.85;112178;1263;18824;-38
2023/06/21 09:54:23;;;;;;;;;39.00;37.33;;;;;24.39;69.30;100839.92;112045;1254;20800;-38
2023/06/21 09:56:51;;;;;;;;;39.33;32.00;;;;;24.40;69.65;100844.53;112250;1263;21473;-38
2023/06/21 09:59:18;;;;;;;;;45.00;37.00;;;;;24.40;69.57;100843.23;112132;1263;19004;-38
2023/06/21 10:01:47;;;;;;;;;40.50;35.50;;;;;24.36;69.58;100845.92;112229;1263;22118;-38
2023/06/21 10:04:15;;;;;;;;;41.33;35.00;;;;;24.42;69.41;100845.73;112252;1256;20543;-37
2023/06/21 10:06:42;;;;;;;;;41.00;39.00;;;;;24.44;69.19;100846.25;112117;1247;18785;-37
2023/06/21 10:09:10;;;;;;;;;44.00;39.00;;;;;24.40;68.99;100842.50;112278;1263;19321;-38
2023/06/21 10:11:37;;;;;;;;;46.50;40.50;;;;;24.35;68.84;100831.13;112142;1251;21495;-39
2023/06/21 10:14:05;;;;;;;;;43.00;40.00;;;;;24.30;68.85;100828.66;112219;1263;19172;-37
2023/06/21 10:16:32;;;;;;;;;48.00;40.00;;;;;24.25;68.61;100825.16;112100;1254;20936;-38
2023/06/21 10:19:00;;;;;;;;;59.00;47.00;;;;;24.25;68.70;100823.02;112258;1263;21790;-37
2023/06/21 10:21:28;;;;;;;;;57.00;45.00;;;;;24.28;68.58;100833.27;112111;1263;20186;-38
2023/06/21 10:23:55;;;;;;;;;48.00;41.00;;;;;24.30;68.69;100835.02;112212;1263;19485;-39
2023/06/21 10:26:23;;;;;;;;;49.00;41.00;;;;;24.31;68.75;100835.02;112096;1263;20328;-39
2023/06/21 10:28:50;;;;;;;;;53.33;43.33;;;;;24.29;68.95;100836.81;112236;1248;20409;-38
2023/06/21 10:31:18;;;;;;;;;44.00;40.00;;;;;24.26;69.18;100834.56;112095;1263;20824;-38
2023/06/21 10:33:45;;;;;;;;;48.50;41.00;;;;;24.21;69.65;100834.85;112230;1263;20144;-37
2023/06/21 10:36:13;;;;;;;;;53.00;41.00;;;;;24.18;69.79;100831.89;112084;1263;19959;-37
2023/06/21 10:38:40;;;;;;;;;44.00;41.00;;;;;24.19;69.83;100831.94;112214;1263;20921;-37
2023/06/21 10:41:07;;;;;;;;;50.00;44.00;;;;;24.22;70.07;100831.45;112117;1247;21921;-38
2023/06/21 10:43:35;;;;;;;;;69.00;53.50;;;;;24.18;70.70;100833.54;112276;1263;20044;-38
2023/06/21 10:46:02;;;;;;;;;60.00;47.00;;;;;24.21;71.06;100831.33;112126;1248;20826;-37
2023/06/21 10:48:31;;;;;;;;;55.00;42.50;;;;;24.41;70.99;100829.55;112273;1263;21680;-40
2023/06/21 10:51:01;;;;;;;;;48.00;43.00;;;;;24.54;70.41;100828.37;112058;1263;20060;-37
2023/06/21 10:53:29;;;;;;;;;55.33;44.67;;;;;24.40;70.64;100822.94;112110;1263;19655;-37
2023/06/21 10:55:56;;;;;;;;;51.00;44.00;;;;;24.13;71.82;100821.50;112191;1248;20002;-37
2023/06/21 10:58:24;;;;;;;;;47.50;41.00;;;;;23.94;72.57;100823.77;112120;1263;19923;-38
2023/06/21 11:00:51;;;;;;;;;53.50;45.00;;;;;23.91;73.04;100824.81;112161;1257;20836;-38
2023/06/21 11:03:25;;;;;;;;;56.00;43.00;;;;;24.00;72.89;100828.48;112021;1263;21854;-37